Česky Dansk Deutsch English Español Suomi Français Magyar Italiano Nederlands norsk Polski Português svenska Türkçe

 

Het Weer

Holesov (Tjechië)

08:00, 1 juli 2009 (GMT)

NWNNE
WE
SWSSE
Home            
Holesov Kunovice Ostrava / Mosnov Brno / Turany Dolny Hricov Piestany Piestany Prievidza Nitra Bratislava Ivanka Sliac Sliac Katowice Wien / Schwechat-Flughafen Tulln Krems-Langenlois Niederosterreich / Lugplatz Voslau Krakow Niederosterreich / Wiener Neustadt-Ost Flugplatz Lucenec Poprad / Tatry Wroclaw Ii Budapest Met Center

Om een weerknop op uw website of weblog te plaatsen, copieer onderstaande code en plak die in uw pagina. In het eerste vakje staat HTML-code, in het tweede vakje UBB-code.


Add to Google

Details

Wind speed:1 bf, 3 kn, 1.5 m/s, 3.5 miles/h, 5.6 km/h
Wind direction:Variable
Visibility:Greater than 10000 m, 10 km, 32800 ft, 6.2 miles
Clouds:CAVOC
Temperature:23°C, 73°F
Gefühlte Temperatur:24°C, 75°F
Dew-point:17°C, 63°F
Atmospheric pressure:1019 hPa, 764.3 mmHg, 30.09 inHg, 1.006 atm
Relative humidity:69.0 %
METAR:LKHO 010800Z VRB03KT CAVOK 23/17 Q1019

Snelkoppelingen

Actuele weersinformatie van de hele wereld. Voeg locaties toe met het plus (+) symbool. Deze snelkoppelingen kunnen worden toegevoegd aan Google.

Lid van de Technetium groep

website free tracking
StatCounter NetStat W3C Validator

28-05-2020 04:45:41
astro.technetium.be money.technetium.be phote.technetium.be tafeltennistafel.technetium.be www.ligfiets.net